MAN weather

Manchester Airport
Manchester, England, United Kingdom

Public forecast

Using degrees Celsius for public forecast. Weather courtesy of forecast.io.

Current aviation weather report (METAR) for Manchester Airport

Retrieved 2019/11/14 17:20 UTC (36 minutes ago):

EGCC 141720Z AUTO 03020KT 9999 SCT025 06/02 Q1004

Aviation forecast (TAF) for Manchester Airport

Retrieved 2019/11/14 12:00 UTC (6 hours ago):

TAF EGCC 141103Z 1412/1518 02014KT 9999 SCT030 TEMPO 1412/1420 03017G27KT TEMPO 1416/1503 8000 -RA BKN014 PROB30 TEMPO 1418/1503 RA BKN008 PROB30 TEMPO 1503/1509 8000 -RA BKN008